Time;durP1;ratioP1;P1;durP2;ratioP2;P2;SDS_P1;SDS_P2;PMS_P1;PMS_P2;Temp;Humidity;BMP_temperature;BMP_pressure;BME280_temperature;BME280_humidity;BME280_pressure;Samples;Min_cycle;Max_cycle;Signal;HPM_P1;HPM_P2
2023/04/17 00:00:46;;;;;;;27.33;13.00;;;9.20;99.90;;;;;;4068953;29;20052;-91
2023/04/17 00:02:47;;;;;;;31.80;14.82;;;8.90;99.90;;;;;;4052152;29;20057;-89
2023/04/17 00:04:51;;;;;;;24.73;12.45;;;8.90;99.90;;;;;;4069048;29;20065;-90
2023/04/17 00:06:52;;;;;;;28.58;13.38;;;8.60;99.90;;;;;;4051912;29;20112;-90
2023/04/17 00:08:54;;;;;;;24.13;12.30;;;8.90;99.90;;;;;;4067544;29;20055;-90
2023/04/17 00:10:55;;;;;;;24.35;12.13;;;9.00;99.90;;;;;;4051063;29;20061;-90
2023/04/17 00:12:56;;;;;;;23.90;12.63;;;8.90;99.90;;;;;;4047798;29;20049;-90
2023/04/17 00:15:00;;;;;;;34.88;12.48;;;8.90;99.90;;;;;;4046344;29;20057;-89
2023/04/17 00:17:01;;;;;;;26.95;13.77;;;8.80;99.90;;;;;;4040719;29;20395;-90
2023/04/17 00:19:03;;;;;;;26.15;12.65;;;8.90;99.90;;;;;;4025236;29;20047;-90
2023/04/17 00:21:04;;;;;;;29.67;14.48;;;8.20;99.90;;;;;;4055873;29;20051;-90
2023/04/17 00:23:06;;;;;;;26.90;12.32;;;8.90;99.90;;;;;;4041398;29;20052;-90
2023/04/17 00:25:09;;;;;;;26.33;13.15;;;8.90;99.90;;;;;;4023589;29;20041;-90
2023/04/17 00:27:10;;;;;;;27.50;14.45;;;8.90;99.90;;;;;;4023493;29;20054;-89
2023/04/17 00:29:11;;;;;;;28.98;14.77;;;8.90;99.90;;;;;;4040405;29;20040;-89
2023/04/17 00:31:12;;;;;;;29.58;13.85;;;8.80;99.90;;;;;;4056986;29;20045;-89
2023/04/17 00:33:13;;;;;;;29.10;13.55;;;8.70;99.90;;;;;;4040268;29;20056;-90
2023/04/17 00:35:16;;;;;;;28.25;13.30;;;8.70;99.90;;;;;;4023565;29;20096;-90
2023/04/17 00:37:17;;;;;;;29.67;13.95;;;8.80;99.90;;;;;;4039746;29;20052;-89
2023/04/17 00:39:21;;;;;;;30.05;13.90;;;8.80;99.90;;;;;;4039913;29;20053;-90
2023/04/17 00:41:22;;;;;;;32.10;13.98;;;8.90;99.90;;;;;;4056230;29;20048;-90
2023/04/17 00:43:23;;;;;;;27.35;13.73;;;8.70;99.90;;;;;;4039252;29;20136;-89
2023/04/17 00:45:24;;;;;;;34.22;16.52;;;9.20;99.90;;;;;;4038185;29;20045;-89
2023/04/17 00:47:26;;;;;;;31.25;15.45;;;8.70;99.90;;;;;;4055892;29;20052;-90
2023/04/17 00:49:29;;;;;;;29.35;14.13;;;8.70;99.90;;;;;;4023114;29;20050;-90
2023/04/17 00:51:31;;;;;;;33.45;15.27;;;8.80;99.90;;;;;;4055075;29;20119;-90
2023/04/17 00:53:32;;;;;;;31.40;13.95;;;8.70;99.90;;;;;;4038889;29;20060;-90
2023/04/17 00:55:36;;;;;;;34.88;15.23;;;9.40;99.90;;;;;;4023364;29;20059;-90
2023/04/17 00:57:37;;;;;;;33.72;15.88;;;8.80;99.90;;;;;;4038902;29;20052;-90
2023/04/17 00:59:39;;;;;;;33.50;16.05;;;9.10;99.90;;;;;;4037573;29;20136;-89
2023/04/17 01:01:39;;;;;;;38.10;15.38;;;8.70;99.90;;;;;;4039182;29;20037;-90
2023/04/17 01:03:40;;;;;;;32.95;15.63;;;8.70;99.90;;;;;;4038403;29;20391;-89
2023/04/17 01:05:43;;;;;;;31.83;16.15;;;8.80;99.90;;;;;;4055625;29;20056;-89
2023/04/17 01:07:45;;;;;;;29.05;14.50;;;8.70;99.90;;;;;;4038282;29;20064;-89
2023/04/17 01:09:46;;;;;;;29.85;14.32;;;8.70;99.90;;;;;;4037336;29;20052;-90
2023/04/17 01:11:47;;;;;;;34.58;16.00;;;8.70;99.90;;;;;;4039007;29;20453;-90
2023/04/17 01:13:49;;;;;;;34.45;15.70;;;8.70;99.90;;;;;;4054447;29;20091;-89
2023/04/17 01:15:50;;;;;;;33.03;15.57;;;8.70;99.90;;;;;;4055277;29;20060;-90
2023/04/17 01:17:51;;;;;;;33.50;14.77;;;8.60;99.90;;;;;;4052765;29;20052;-90
2023/04/17 01:19:54;;;;;;;33.25;15.55;;;8.80;99.90;;;;;;4023316;29;20145;-89
2023/04/17 01:21:56;;;;;;;27.30;13.38;;;8.70;99.90;;;;;;4055271;29;20041;-89
2023/04/17 01:24:02;;;;;;;35.38;14.52;;;8.70;99.90;;;;;;4052800;29;20489;-90
2023/04/17 01:26:02;;;;;;;31.48;15.35;;;8.70;99.90;;;;;;4039455;29;20060;-90
2023/04/17 01:28:03;;;;;;;30.67;14.55;;;8.70;99.90;;;;;;4022610;29;20068;-89
2023/04/17 01:30:05;;;;;;;28.70;13.23;;;8.70;99.90;;;;;;4039014;29;20097;-90
2023/04/17 01:32:06;;;;;;;30.42;15.82;;;8.70;99.90;;;;;;4054223;29;20049;-89
2023/04/17 01:34:07;;;;;;;29.02;15.00;;;8.50;99.90;;;;;;4039070;29;20116;-89
2023/04/17 01:36:08;;;;;;;29.90;13.48;;;8.70;99.90;;;;;;4056523;29;20044;-89
2023/04/17 01:38:09;;;;;;;27.27;13.68;;;8.60;99.90;;;;;;4038703;29;20109;-89
2023/04/17 01:40:10;;;;;;;29.13;12.60;;;8.60;99.90;;;;;;4042442;29;20486;-89
2023/04/17 01:42:12;;;;;;;46.17;12.95;;;8.70;99.90;;;;;;4042084;29;20392;-90
2023/04/17 01:44:19;;;;;;;42.03;13.90;;;9.00;99.90;;;;;;4012821;29;20042;-90
2023/04/17 01:46:20;;;;;;;32.08;13.80;;;8.30;99.90;;;;;;4026757;29;20049;-90
2023/04/17 01:48:21;;;;;;;26.38;12.13;;;8.50;99.90;;;;;;4027230;29;20053;-90
2023/04/17 01:50:22;;;;;;;32.00;13.40;;;7.30;99.90;;;;;;4028177;29;20041;-90
2023/04/17 01:52:23;;;;;;;25.45;12.65;;;8.40;99.90;;;;;;4026291;29;20046;-90
2023/04/17 01:54:24;;;;;;;28.25;12.52;;;8.40;99.90;;;;;;4029331;29;20053;-90
2023/04/17 01:56:25;;;;;;;30.30;12.85;;;8.40;99.90;;;;;;4025085;29;20113;-90
2023/04/17 01:58:27;;;;;;;26.92;12.73;;;8.30;99.90;;;;;;4040778;29;20053;-90
2023/04/17 02:00:28;;;;;;;26.13;12.55;;;8.40;99.90;;;;;;4057703;29;20040;-90
2023/04/17 02:02:29;;;;;;;31.75;13.27;;;8.40;99.90;;;;;;4059060;29;20108;-90
2023/04/17 02:04:31;;;;;;;30.08;12.65;;;8.30;99.90;;;;;;4025551;29;20575;-90
2023/04/17 02:06:33;;;;;;;31.80;13.00;;;6.90;99.90;;;;;;4019778;29;20067;-90
2023/04/17 02:08:33;;;;;;;29.45;12.73;;;8.30;99.90;;;;;;4044387;29;20045;-89
2023/04/17 02:10:35;;;;;;;23.63;12.45;;;8.20;99.90;;;;;;4026449;29;20054;-90
2023/04/17 02:12:37;;;;;;;29.80;12.93;;;8.20;99.90;;;;;;4046783;29;20043;-90
2023/04/17 02:14:38;;;;;;;27.13;13.95;;;8.30;99.90;;;;;;4031323;29;20132;-90
2023/04/17 02:16:44;;;;;;;28.05;12.07;;;8.30;99.90;;;;;;4045106;29;20053;-90
2023/04/17 02:18:45;;;;;;;44.60;13.27;;;8.20;99.90;;;;;;4061510;29;20059;-90
2023/04/17 02:20:47;;;;;;;43.33;13.00;;;8.30;99.90;;;;;;4026717;29;20418;-90
2023/04/17 02:22:47;;;;;;;35.08;11.45;;;8.20;99.90;;;;;;4055619;29;20093;-90
2023/04/17 02:24:48;;;;;;;29.55;14.68;;;8.20;99.90;;;;;;4058729;29;20036;-90
2023/04/17 02:26:50;;;;;;;30.77;12.65;;;8.20;99.90;;;;;;4043074;29;20077;-90
2023/04/17 02:28:51;;;;;;;25.58;12.68;;;8.20;99.90;;;;;;4075047;29;20033;-90
2023/04/17 02:30:51;;;;;;;27.48;11.95;;;8.10;99.90;;;;;;4057834;29;20036;-91
2023/04/17 02:32:54;;;;;;;27.20;13.35;;;8.10;99.90;;;;;;4042145;29;20049;-90
2023/04/17 02:34:56;;;;;;;25.77;12.70;;;8.10;99.90;;;;;;4034671;29;20116;-91
2023/04/17 02:36:57;;;;;;;34.72;12.90;;;8.20;99.90;;;;;;4035998;29;20049;-90
2023/04/17 02:38:59;;;;;;;29.42;13.07;;;8.10;99.90;;;;;;4050590;29;20049;-90
2023/04/17 02:41:00;;;;;;;31.05;13.10;;;8.10;99.90;;;;;;4037079;29;20444;-91
2023/04/17 02:43:00;;;;;;;30.73;13.20;;;8.00;99.90;;;;;;4051922;29;20045;-90
2023/04/17 02:45:03;;;;;;;29.70;13.43;;;8.00;99.90;;;;;;4039112;29;20077;-90
2023/04/17 02:47:06;;;;;;;33.63;13.68;;;8.10;99.90;;;;;;4052880;29;20033;-90
2023/04/17 02:49:08;;;;;;;33.35;15.05;;;8.10;99.90;;;;;;4051432;29;20076;-90
2023/04/17 02:51:08;;;;;;;28.23;13.25;;;8.10;99.90;;;;;;4028894;29;20053;-90
2023/04/17 02:53:10;;;;;;;30.77;13.88;;;8.00;99.90;;;;;;4040143;29;20053;-90
2023/04/17 02:55:11;;;;;;;29.45;13.05;;;8.50;99.90;;;;;;4025754;29;20046;-90
2023/04/17 02:57:14;;;;;;;29.42;12.73;;;8.00;99.90;;;;;;4039744;29;20048;-90
2023/04/17 02:59:15;;;;;;;31.00;12.98;;;8.10;99.90;;;;;;4040588;29;20103;-89
2023/04/17 03:01:21;;;;;;;34.22;12.65;;;8.10;99.90;;;;;;4050689;29;20105;-90
2023/04/17 03:03:22;;;;;;;29.20;12.20;;;8.00;99.90;;;;;;4054872;29;20048;-90
2023/04/17 03:05:22;;;;;;;30.00;12.65;;;8.10;99.90;;;;;;4046748;29;20045;-90
2023/04/17 03:07:26;;;;;;;26.17;11.93;;;8.00;99.90;;;;;;4054859;29;20048;-90
2023/04/17 03:09:27;;;;;;;26.40;12.05;;;8.00;99.90;;;;;;4041379;29;20053;-90
2023/04/17 03:11:28;;;;;;;24.40;10.82;;;8.10;99.90;;;;;;4040319;29;20546;-89
2023/04/17 03:13:30;;;;;;;25.67;11.77;;;8.00;99.90;;;;;;4041014;29;20057;-90
2023/04/17 03:15:31;;;;;;;24.45;11.35;;;8.00;99.90;;;;;;4026672;29;20137;-89
2023/04/17 03:17:32;;;;;;;24.23;11.80;;;8.10;99.90;;;;;;4039453;29;20049;-89
2023/04/17 03:19:39;;;;;;;36.83;11.88;;;8.10;99.90;;;;;;4041540;29;20033;-90
2023/04/17 03:21:39;;;;;;;32.17;13.05;;;8.10;99.90;;;;;;4024131;29;20056;-89
2023/04/17 03:23:42;;;;;;;36.58;13.23;;;8.00;99.90;;;;;;4058552;29;20418;-90
2023/04/17 03:25:44;;;;;;;38.60;12.13;;;8.10;99.90;;;;;;4025429;29;20060;-90
2023/04/17 03:27:45;;;;;;;32.08;11.27;;;8.00;99.90;;;;;;4024917;29;20523;-90
2023/04/17 03:29:47;;;;;;;31.20;11.93;;;7.90;99.90;;;;;;4057806;29;20044;-89
2023/04/17 03:31:48;;;;;;;29.55;12.48;;;8.10;99.90;;;;;;4039651;29;20045;-89
2023/04/17 03:33:49;;;;;;;30.50;11.45;;;8.10;99.90;;;;;;4057954;29;20080;-90
2023/04/17 03:35:58;;;;;;;27.30;11.30;;;6.60;99.90;;;;;;4024531;29;20105;-89
2023/04/17 03:37:59;;;;;;;57.08;12.23;;;8.10;99.90;;;;;;4041010;29;20048;-90
2023/04/17 03:40:01;;;;;;;32.58;11.85;;;8.00;99.90;;;;;;4041956;29;20045;-90
2023/04/17 03:42:03;;;;;;;40.17;11.07;;;8.00;99.90;;;;;;4057168;29;20067;-90
2023/04/17 03:44:04;;;;;;;122.22;14.55;;;8.00;99.90;;;;;;4027153;29;20053;-90
2023/04/17 03:46:06;;;;;;;69.55;12.68;;;7.90;99.90;;;;;;4024664;29;20069;-90
2023/04/17 03:48:08;;;;;;;57.97;11.60;;;7.90;99.90;;;;;;4041153;29;20056;-89
2023/04/17 03:50:09;;;;;;;38.05;11.95;;;7.90;99.90;;;;;;4056121;29;20041;-91
2023/04/17 03:52:10;;;;;;;38.95;11.82;;;7.80;99.90;;;;;;4055777;29;20049;-90
2023/04/17 03:54:10;;;;;;;48.35;13.32;;;8.10;99.90;;;;;;4040397;29;20060;-90
2023/04/17 03:56:13;;;;;;;46.47;11.73;;;7.90;99.90;;;;;;4039161;29;20097;-91
2023/04/17 03:58:14;;;;;;;31.83;13.93;;;8.20;99.90;;;;;;4024936;29;20081;-91
2023/04/17 04:00:15;;;;;;;30.63;13.63;;;8.10;99.90;;;;;;4038551;29;20137;-90
2023/04/17 04:02:17;;;;;;;32.92;12.88;;;7.90;99.90;;;;;;4024645;29;20136;-89
2023/04/17 04:04:19;;;;;;;33.03;14.60;;;7.50;99.90;;;;;;4039114;29;20045;-90
2023/04/17 04:06:21;;;;;;;30.52;14.55;;;8.00;99.90;;;;;;4021926;29;20490;-90
2023/04/17 04:08:23;;;;;;;34.05;14.25;;;8.70;99.90;;;;;;4024523;29;20046;-89
2023/04/17 04:10:24;;;;;;;31.83;13.77;;;8.00;99.90;;;;;;4022736;29;20445;-90
2023/04/17 04:12:25;;;;;;;31.67;13.88;;;8.00;99.90;;;;;;4024065;29;20065;-90
2023/04/17 04:14:26;;;;;;;27.30;13.15;;;8.00;99.90;;;;;;4008081;29;20069;-90
2023/04/17 04:16:28;;;;;;;24.30;12.38;;;8.50;99.90;;;;;;4024602;29;20057;-90
2023/04/17 04:18:29;;;;;;;29.55;12.25;;;8.10;99.90;;;;;;4040900;29;20041;-91
2023/04/17 04:20:31;;;;;;;26.67;12.10;;;8.00;99.90;;;;;;4009776;29;20121;-90
2023/04/17 04:22:33;;;;;;;27.38;12.68;;;8.10;99.90;;;;;;4010868;29;20068;-90
2023/04/17 04:24:35;;;;;;;24.55;12.25;;;8.10;99.90;;;;;;4024095;29;20064;-91
2023/04/17 04:26:39;;;;;;;26.73;13.25;;;8.30;99.90;;;;;;4024373;29;20040;-89
2023/04/17 04:28:42;;;;;;;26.25;11.85;;;8.10;99.90;;;;;;4023680;29;20128;-89
2023/04/17 04:30:49;;;;;;;22.33;12.15;;;8.10;99.90;;;;;;4025387;29;20054;-90
2023/04/17 04:32:50;;;;;;;27.27;12.43;;;7.50;99.90;;;;;;4025365;29;20045;-90
2023/04/17 04:34:51;;;;;;;30.85;13.20;;;6.50;99.90;;;;;;4024233;29;20080;-91
2023/04/17 04:36:52;;;;;;;25.80;12.35;;;8.10;99.90;;;;;;4025826;29;20032;-90
2023/04/17 04:38:58;;;;;;;24.45;12.15;;;8.30;99.90;;;;;;4007584;29;20480;-91
2023/04/17 04:41:04;;;;;;;22.85;11.40;;;8.10;99.90;;;;;;4045147;29;20433;-90
2023/04/17 04:43:06;;;;;;;32.85;14.32;;;8.10;99.90;;;;;;4056108;29;20048;-90
2023/04/17 04:45:08;;;;;;;24.85;12.95;;;8.10;99.90;;;;;;4038671;29;20056;-90
2023/04/17 04:47:09;;;;;;;25.70;12.18;;;8.10;99.90;;;;;;4039848;29;20091;-89
2023/04/17 04:49:10;;;;;;;29.33;13.38;;;8.10;99.90;;;;;;4038194;29;20049;-89
2023/04/17 04:51:11;;;;;;;26.50;14.00;;;8.10;99.90;;;;;;4051151;29;20033;-90
2023/04/17 04:53:13;;;;;;;27.10;12.75;;;8.30;99.90;;;;;;4049446;29;20044;-87
2023/04/17 04:55:15;;;;;;;28.77;13.45;;;8.80;99.90;;;;;;4045007;29;20057;-88
2023/04/17 04:57:17;;;;;;;30.90;14.60;;;8.20;99.90;;;;;;4058852;29;20041;-86
2023/04/17 04:59:17;;;;;;;30.65;13.52;;;8.10;99.90;;;;;;4057527;29;20052;-86
2023/04/17 05:01:18;;;;;;;33.95;15.45;;;8.20;99.90;;;;;;4024552;29;20058;-86
2023/04/17 05:03:21;;;;;;;36.45;15.27;;;8.20;99.90;;;;;;4041679;29;20074;-88
2023/04/17 05:05:21;;;;;;;30.13;13.80;;;8.50;99.90;;;;;;4011153;29;20532;-87
2023/04/17 05:07:26;;;;;;;29.15;14.80;;;8.60;99.90;;;;;;4040120;29;20088;-87
2023/04/17 05:09:27;;;;;;;35.78;15.05;;;8.30;99.90;;;;;;4008157;29;20057;-88
2023/04/17 05:11:28;;;;;;;32.22;14.52;;;8.20;99.90;;;;;;4023842;29;20551;-88
2023/04/17 05:13:29;;;;;;;30.58;14.40;;;7.60;99.90;;;;;;4011815;29;20045;-87
2023/04/17 05:15:30;;;;;;;29.55;13.52;;;8.30;99.90;;;;;;4043030;29;20121;-88
2023/04/17 05:17:30;;;;;;;30.15;14.05;;;8.30;99.90;;;;;;4024926;29;20053;-88
2023/04/17 05:19:34;;;;;;;28.55;12.95;;;8.30;99.90;;;;;;4043703;29;20455;-88
2023/04/17 05:21:36;;;;;;;27.40;12.25;;;8.70;99.90;;;;;;4027936;29;20550;-86
2023/04/17 05:23:38;;;;;;;30.00;14.38;;;8.30;99.90;;;;;;4042367;29;20060;-89
2023/04/17 05:25:39;;;;;;;26.60;12.95;;;8.70;99.90;;;;;;4026967;29;20049;-88
2023/04/17 05:27:46;;;;;;;26.48;12.82;;;8.60;99.90;;;;;;4042827;29;20052;-88
2023/04/17 05:29:47;;;;;;;28.23;13.63;;;8.30;99.90;;;;;;4047647;29;20100;-88
2023/04/17 05:31:48;;;;;;;30.20;13.48;;;8.40;99.90;;;;;;4041068;29;20057;-88
2023/04/17 05:33:50;;;;;;;27.77;12.65;;;8.40;99.90;;;;;;4057900;29;20048;-88
2023/04/17 05:35:51;;;;;;;27.33;13.13;;;8.40;99.90;;;;;;4057607;29;20040;-87
2023/04/17 05:37:52;;;;;;;27.33;12.70;;;8.70;99.90;;;;;;4024481;29;20057;-88
2023/04/17 05:39:55;;;;;;;23.80;12.57;;;8.60;99.90;;;;;;4040925;29;20057;-88
2023/04/17 05:41:56;;;;;;;31.17;13.10;;;9.10;99.90;;;;;;4056457;29;20068;-88
2023/04/17 05:43:57;;;;;;;25.77;11.32;;;8.60;99.90;;;;;;4040877;29;20401;-88
2023/04/17 05:45:58;;;;;;;21.25;11.15;;;8.60;99.90;;;;;;4040153;29;20135;-88
2023/04/17 05:47:59;;;;;;;23.23;11.43;;;8.60;99.90;;;;;;4058748;29;20045;-88
2023/04/17 05:50:07;;;;;;;24.48;13.32;;;8.60;99.90;;;;;;4024307;29;20474;-88
2023/04/17 05:52:07;;;;;;;23.67;12.05;;;8.70;99.90;;;;;;4057120;29;20044;-88
2023/04/17 05:54:09;;;;;;;25.08;13.00;;;8.60;99.90;;;;;;4056823;29;20054;-88
2023/04/17 05:56:10;;;;;;;23.13;13.15;;;8.60;99.90;;;;;;4025967;29;20526;-89
2023/04/17 05:58:12;;;;;;;21.83;12.63;;;8.40;99.90;;;;;;4025642;29;20053;-89
2023/04/17 06:00:20;;;;;;;22.27;11.98;;;8.70;99.90;;;;;;4008777;29;20152;-88
2023/04/17 06:02:21;;;;;;;27.77;12.73;;;8.70;99.90;;;;;;4010080;29;20503;-88
2023/04/17 06:04:22;;;;;;;21.15;11.95;;;8.90;99.90;;;;;;4010375;29;20141;-89
2023/04/17 06:06:23;;;;;;;23.77;11.82;;;8.90;99.90;;;;;;4010721;29;20053;-89
2023/04/17 06:08:24;;;;;;;21.30;10.90;;;8.80;99.90;;;;;;4010459;29;20057;-88
2023/04/17 06:10:25;;;;;;;20.88;10.50;;;8.80;99.90;;;;;;4048014;29;20049;-89
2023/04/17 06:12:27;;;;;;;22.58;10.85;;;8.90;99.90;;;;;;4039783;29;20061;-88
2023/04/17 06:14:30;;;;;;;22.23;11.30;;;8.90;99.90;;;;;;4056595;29;20036;-89
2023/04/17 06:16:31;;;;;;;19.58;11.77;;;8.90;99.90;;;;;;4041079;29;20585;-88
2023/04/17 06:18:32;;;;;;;22.70;11.48;;;9.00;99.90;;;;;;4035599;29;20049;-90
2023/04/17 06:20:33;;;;;;;21.55;11.65;;;8.90;99.90;;;;;;4056019;29;20379;-88
2023/04/17 06:22:34;;;;;;;21.38;11.88;;;9.00;99.90;;;;;;4038225;29;20104;-91
2023/04/17 06:24:36;;;;;;;21.98;12.45;;;8.60;99.90;;;;;;4022532;29;20136;-90
2023/04/17 06:26:36;;;;;;;21.20;11.15;;;9.00;99.90;;;;;;4061833;29;20052;-90
2023/04/17 06:28:39;;;;;;;22.23;12.05;;;9.10;99.90;;;;;;4044806;29;20519;-91
2023/04/17 06:30:41;;;;;;;18.35;10.50;;;9.10;99.90;;;;;;4027367;29;20082;-88
2023/04/17 06:32:42;;;;;;;22.27;11.38;;;9.10;99.90;;;;;;4027047;29;20089;-89
2023/04/17 06:34:43;;;;;;;19.92;11.80;;;9.20;99.90;;;;;;4040750;29;20449;-89
2023/04/17 06:36:44;;;;;;;19.90;10.77;;;8.40;99.90;;;;;;4040517;29;20056;-90
2023/04/17 06:38:45;;;;;;;26.08;12.13;;;9.30;99.90;;;;;;4041091;29;20045;-90
2023/04/17 06:40:47;;;;;;;19.85;11.48;;;9.30;99.90;;;;;;4026832;29;20045;-90
2023/04/17 06:42:49;;;;;;;24.55;11.48;;;9.30;99.90;;;;;;4041858;29;20513;-89
2023/04/17 06:44:51;;;;;;;23.40;11.07;;;10.00;99.90;;;;;;4058018;29;20037;-88
2023/04/17 06:46:53;;;;;;;20.52;11.10;;;9.40;99.90;;;;;;4025621;29;20517;-87
2023/04/17 06:48:56;;;;;;;20.83;11.80;;;9.40;99.90;;;;;;4057446;29;20053;-88
2023/04/17 06:50:57;;;;;;;22.42;12.15;;;9.50;99.90;;;;;;4041121;29;20049;-88
2023/04/17 06:52:58;;;;;;;18.65;10.63;;;9.60;99.90;;;;;;4056514;29;20081;-87
2023/04/17 06:55:01;;;;;;;18.77;11.48;;;9.70;99.90;;;;;;4026573;29;20080;-88
2023/04/17 06:57:05;;;;;;;19.60;11.20;;;9.70;99.90;;;;;;4026869;29;20523;-88
2023/04/17 06:59:06;;;;;;;21.35;12.18;;;9.90;99.90;;;;;;4025576;29;20128;-89
2023/04/17 07:01:06;;;;;;;22.23;13.02;;;9.90;99.90;;;;;;4043240;29;20457;-89
2023/04/17 07:03:08;;;;;;;20.63;11.63;;;10.00;99.90;;;;;;4041888;29;20056;-90
2023/04/17 07:05:09;;;;;;;19.38;11.65;;;10.10;99.90;;;;;;4042059;29;20049;-89
2023/04/17 07:07:11;;;;;;;21.10;11.85;;;10.10;99.90;;;;;;4058952;29;20051;-92
2023/04/17 07:09:12;;;;;;;21.83;11.13;;;10.20;99.90;;;;;;4026830;29;20117;-87
2023/04/17 07:11:12;;;;;;;18.85;10.80;;;10.30;99.90;;;;;;4041505;29;20053;-89
2023/04/17 07:13:13;;;;;;;18.85;10.93;;;10.40;99.90;;;;;;4040815;29;20057;-89
2023/04/17 07:15:15;;;;;;;17.13;10.57;;;10.40;99.90;;;;;;4041414;29;20080;-89
2023/04/17 07:17:15;;;;;;;17.25;9.45;;;10.30;99.90;;;;;;4043776;29;20049;-89
2023/04/17 07:19:16;;;;;;;14.90;9.48;;;10.60;99.90;;;;;;4045657;29;20040;-89
2023/04/17 07:21:17;;;;;;;15.88;9.80;;;10.70;99.90;;;;;;4041515;29;20160;-89
2023/04/17 07:23:18;;;;;;;16.42;9.75;;;10.70;99.90;;;;;;4033872;29;20057;-89
2023/04/17 07:25:20;;;;;;;20.77;10.30;;;;;;;;;;4026428;29;20059;-90
2023/04/17 07:27:21;;;;;;;15.43;9.95;;;10.80;99.90;;;;;;4025625;29;20052;-89
2023/04/17 07:29:21;;;;;;;17.50;9.70;;;10.80;99.90;;;;;;4026189;29;20049;-89
2023/04/17 07:31:22;;;;;;;15.60;10.65;;;10.80;99.90;;;;;;4025784;29;20526;-88
2023/04/17 07:33:23;;;;;;;15.45;9.88;;;;;;;;;;4026033;29;20061;-88
2023/04/17 07:35:24;;;;;;;18.33;11.02;;;11.00;99.90;;;;;;4057267;29;20470;-89
2023/04/17 07:37:25;;;;;;;16.90;9.93;;;;;;;;;;4040562;29;20465;-90
2023/04/17 07:39:30;;;;;;;23.23;10.95;;;;;;;;;;4025697;29;20049;-90
2023/04/17 07:41:33;;;;;;;15.50;10.95;;;;;;;;;;4057123;29;20044;-89
2023/04/17 07:43:40;;;;;;;16.45;10.70;;;;;;;;;;4033218;29;20061;-91
2023/04/17 07:45:41;;;;;;;16.38;10.30;;;11.30;99.90;;;;;;4023708;29;20045;-91
2023/04/17 07:47:46;;;;;;;15.05;9.88;;;;;;;;;;4057328;29;20052;-89
2023/04/17 07:49:47;;;;;;;23.02;9.63;;;11.90;99.90;;;;;;4040856;29;20060;-90
2023/04/17 07:51:50;;;;;;;17.67;9.95;;;12.10;99.90;;;;;;4040675;29;20053;-88
2023/04/17 07:53:50;;;;;;;15.98;9.88;;;12.20;99.90;;;;;;4026443;29;20053;-89
2023/04/17 07:55:51;;;;;;;15.15;8.23;;;12.50;99.90;;;;;;4039349;29;20442;-88
2023/04/17 07:57:53;;;;;;;14.95;9.30;;;12.60;99.90;;;;;;4020850;29;20082;-89
2023/04/17 07:59:55;;;;;;;16.30;8.55;;;13.60;99.90;;;;;;4041260;29;20178;-89
2023/04/17 08:01:56;;;;;;;15.55;10.38;;;12.70;99.90;;;;;;4040644;29;20455;-88
2023/04/17 08:03:58;;;;;;;15.07;8.90;;;11.60;99.90;;;;;;4057537;29;20038;-88
2023/04/17 08:05:59;;;;;;;13.57;8.77;;;12.70;99.90;;;;;;4056027;29;20048;-88
2023/04/17 08:08:00;;;;;;;13.70;8.88;;;12.70;99.90;;;;;;4026234;29;20182;-89
2023/04/17 08:10:02;;;;;;;13.20;9.25;;;12.80;99.90;;;;;;4041732;29;20070;-91
2023/04/17 08:12:03;;;;;;;15.93;9.48;;;14.10;99.90;;;;;;4041986;29;20128;-89
2023/04/17 08:14:03;;;;;;;18.38;9.32;;;13.30;99.90;;;;;;4039729;29;20045;-89
2023/04/17 08:16:05;;;;;;;16.17;8.40;;;13.30;99.90;;;;;;4024277;29;20174;-89
2023/04/17 08:18:08;;;;;;;13.98;8.20;;;13.40;99.90;;;;;;4041227;29;20061;-88
2023/04/17 08:20:10;;;;;;;14.25;8.73;;;13.50;99.90;;;;;;4064508;29;20497;-90
2023/04/17 08:22:13;;;;;;;15.02;8.77;;;13.50;99.90;;;;;;4025914;29;20518;-89
2023/04/17 08:24:14;;;;;;;14.23;8.85;;;13.50;99.90;;;;;;4024500;29;20085;-91
2023/04/17 08:26:17;;;;;;;16.40;8.00;;;13.40;99.90;;;;;;4040342;29;20029;-90
2023/04/17 08:28:20;;;;;;;15.82;8.85;;;14.10;99.90;;;;;;4023562;29;20054;-90
2023/04/17 08:30:22;;;;;;;15.75;8.25;;;13.50;99.90;;;;;;4031599;29;20049;-90
2023/04/17 08:32:23;;;;;;;14.23;8.45;;;13.60;99.90;;;;;;4024839;29;20104;-90
2023/04/17 08:34:24;;;;;;;14.43;9.52;;;13.70;99.90;;;;;;4022888;29;20053;-90
2023/04/17 08:36:27;;;;;;;14.20;8.57;;;13.60;99.90;;;;;;4029589;29;20045;-89
2023/04/17 08:38:30;;;;;;;15.65;9.20;;;13.50;99.90;;;;;;4038353;29;20053;-90
2023/04/17 08:40:31;;;;;;;13.38;8.90;;;13.60;99.90;;;;;;4023968;29;20075;-89
2023/04/17 08:42:35;;;;;;;13.20;8.35;;;13.60;99.90;;;;;;4022577;29;20049;-89
2023/04/17 08:44:36;;;;;;;15.75;8.90;;;13.60;99.90;;;;;;4040005;29;20469;-88
2023/04/17 08:46:38;;;;;;;20.05;8.95;;;13.60;99.90;;;;;;4039637;29;20208;-87
2023/04/17 08:48:38;;;;;;;15.30;8.60;;;13.70;99.90;;;;;;4039040;29;20139;-89
2023/04/17 08:50:46;;;;;;;15.88;8.63;;;13.80;99.90;;;;;;4057017;29;20043;-89
2023/04/17 08:52:50;;;;;;;15.95;9.27;;;13.90;99.90;;;;;;4040736;29;20057;-89
2023/04/17 08:54:51;;;;;;;15.27;9.10;;;12.70;99.90;;;;;;4040755;29;20057;-89
2023/04/17 08:56:52;;;;;;;13.52;7.72;;;14.00;99.90;;;;;;4024764;29;20122;-90
2023/04/17 08:58:53;;;;;;;14.95;7.70;;;14.10;99.90;;;;;;4024417;29;20057;-89
2023/04/17 09:00:54;;;;;;;14.45;8.13;;;14.10;99.90;;;;;;4025901;29;20408;-89
2023/04/17 09:02:57;;;;;;;12.15;7.30;;;14.20;99.90;;;;;;4024384;29;20053;-89
2023/04/17 09:05:00;;;;;;;12.88;7.68;;;14.20;99.90;;;;;;4025686;29;20055;-90
2023/04/17 09:07:02;;;;;;;18.73;8.10;;;14.10;99.90;;;;;;4025339;29;20049;-87
2023/04/17 09:09:03;;;;;;;13.27;7.38;;;14.20;99.90;;;;;;4056078;29;20422;-88
2023/04/17 09:11:14;;;;;;;12.02;7.68;;;14.20;99.90;;;;;;4056802;29;20234;-88
2023/04/17 09:13:18;;;;;;;11.95;7.45;;;14.20;99.90;;;;;;4026865;29;20049;-87
2023/04/17 09:15:19;;;;;;;13.35;8.07;;;13.20;99.90;;;;;;4024229;29;20080;-88
2023/04/17 09:17:21;;;;;;;17.48;8.68;;;14.50;99.90;;;;;;4025679;29;20076;-88
2023/04/17 09:19:23;;;;;;;11.38;7.53;;;14.40;99.90;;;;;;4056596;29;20104;-89
2023/04/17 09:21:27;;;;;;;16.10;8.13;;;13.20;99.90;;;;;;4025407;29;20060;-88
2023/04/17 09:23:44;;;;;;;10.80;7.55;;;14.60;99.90;;;;;;4024042;29;20046;-87
2023/04/17 09:25:45;;;;;;;12.43;7.32;;;14.70;99.90;;;;;;4057288;29;20044;-91
2023/04/17 09:27:47;;;;;;;11.27;7.10;;;14.80;99.90;;;;;;4041015;29;20041;-91
2023/04/17 09:30:01;;;;;;;13.00;7.57;;;14.90;99.90;;;;;;4023922;29;20590;-91
2023/04/17 09:32:14;;;;;;;13.48;8.30;;;15.10;99.90;;;;;;4044735;29;20053;-91
2023/04/17 09:34:20;;;;;;;13.73;7.53;;;15.30;99.90;;;;;;4029771;29;20179;-90
2023/04/17 09:36:21;;;;;;;10.68;7.88;;;14.60;99.90;;;;;;4023876;29;20095;-92
2023/04/17 09:38:36;;;;;;;13.48;7.13;;;15.30;99.90;;;;;;4038638;29;20069;-92
2023/04/17 09:40:40;;;;;;;18.48;8.38;;;15.50;99.90;;;;;;4024574;29;20065;-91
2023/04/17 09:42:53;;;;;;;16.92;10.60;;;15.60;99.90;;;;;;4040045;29;20115;-91
2023/04/17 09:44:56;;;;;;;13.50;7.82;;;15.70;99.90;;;;;;4055805;29;20045;-92
2023/04/17 09:46:59;;;;;;;14.98;8.80;;;15.70;99.90;;;;;;4040319;29;20030;-91
2023/04/17 09:49:19;;;;;;;14.38;9.05;;;;;;;;;;4040140;29;20045;-90
2023/04/17 09:51:20;;;;;;;14.57;8.95;;;15.80;99.90;;;;;;4070802;29;20044;-92
2023/04/17 09:53:24;;;;;;;14.75;8.63;;;;;;;;;;4056179;29;20033;-92
2023/04/17 09:55:28;;;;;;;13.60;8.20;;;;;;;;;;4041165;29;20034;-91
2023/04/17 09:57:30;;;;;;;13.82;8.00;;;;;;;;;;4056255;29;20040;-90
2023/04/17 09:59:33;;;;;;;13.00;8.68;;;;;;;;;;4035054;29;20072;-91
2023/04/17 10:01:35;;;;;;;13.93;8.75;;;;;;;;;;4061956;29;20065;-91
2023/04/17 10:03:37;;;;;;;14.23;8.25;;;;;;;;;;4027848;29;20132;-91
2023/04/17 10:05:38;;;;;;;13.40;8.65;;;;;;;;;;4043078;29;20101;-92
2023/04/17 10:07:39;;;;;;;13.82;7.97;;;;;;;;;;4042309;29;20120;-92
2023/04/17 10:09:41;;;;;;;13.07;8.10;;;;;;;;;;4043113;29;20049;-92
2023/04/17 10:11:46;;;;;;;11.73;7.85;;;;;;;;;;4037853;29;20050;-92
2023/04/17 10:13:52;;;;;;;11.85;7.28;;;;;;;;;;4042524;29;20513;-92
2023/04/17 10:15:55;;;;;;;14.82;7.82;;;;;;;;;;4028222;29;20050;-92
2023/04/17 10:18:16;;;;;;;12.55;7.82;;;;;;;;;;4025893;29;20185;-92
2023/04/17 10:20:18;;;;;;;14.23;8.43;;;;;;;;;;4043094;29;20048;-93
2023/04/17 10:22:19;;;;;;;14.05;8.52;;;15.90;99.90;;;;;;4036902;29;20028;-91
2023/04/17 10:24:26;;;;;;;13.32;7.70;;;;;;;;;;4030600;29;20129;-89
2023/04/17 10:26:28;;;;;;;17.27;8.93;;;;;;;;;;4032808;29;20087;-89
2023/04/17 10:28:48;;;;;;;12.90;7.55;;;;;;;;;;4026537;29;20045;-89
2023/04/17 10:30:53;;;;;;;13.77;8.52;;;;;;;;;;4041120;29;20048;-90
2023/04/17 10:33:18;;;;;;;11.95;8.23;;;;;;;;;;4041607;29;20123;-90
2023/04/17 10:35:19;;;;;;;13.95;8.15;;;;;;;;;;4043363;29;20054;-89